Check out our new BloomSky Weather System.

Active alerts


No alerts


Thunder radar  blitzortung!


Rain radar more information rain snow radar


Visit our other weather sites:

Template documentation
and downloads

And another site



Weather Underground History page Text

Daily Summary for January 15, 2017 Units:  English    Metric   Both
« Previous Day
Next Day »
Daily Weekly Monthly Yearly Custom
  High: Low: Average:
Temperature: 75.6 °F 62.1 °F 68.3 °F
Dew Point: 70.2 °F 61.2 °F 65.9 °F
Humidity: 98 % 73 % 92 %
Wind Speed: 18.0 mph 0.0 mph 4.3 mph
Wind Gust: 19.0 mph - -
Wind:- - ESE
Pressure: 30.23 in 29.94 in -
Precipitation: 0.02 in    
Historical Graphs
 
 
Tabular Data for January 15, 2017
Time Temperature Dew Point Pressure Wind Wind Speed Wind Gust Humidity Rainfall Rate (Hourly)
00:02 62.1 °F 61.2 °F 30.23 in Calm   2.0 mph 97 % 0.00 in
00:07 62.1 °F 61.2 °F 30.22 in Calm   1.0 mph 97 % 0.00 in
00:12 62.2 °F 61.3 °F 30.22 in Calm   1.0 mph 97 % 0.00 in
00:17 62.2 °F 61.3 °F 30.22 in Calm   1.0 mph 97 % 0.00 in
00:22 62.6 °F 62.1 °F 30.22 in East 1.0 mph 1.0 mph 98 % 0.00 in
00:27 62.8 °F 62.2 °F 30.22 in ENE 1.0 mph 2.0 mph 98 % 0.00 in
00:32 63.0 °F 62.4 °F 30.21 in Calm   2.0 mph 98 % 0.00 in
00:38 63.1 °F 62.6 °F 30.21 in ENE 1.0 mph 2.0 mph 98 % 0.00 in
00:43 63.3 °F 62.8 °F 30.21 in Calm   3.0 mph 98 % 0.00 in
00:48 63.3 °F 62.8 °F 30.21 in Calm   3.0 mph 98 % 0.00 in
00:53 63.3 °F 62.8 °F 30.21 in ESE 2.0 mph 6.0 mph 98 % 0.00 in
00:58 63.3 °F 62.8 °F 30.21 in Calm   6.0 mph 98 % 0.00 in
01:03 63.3 °F 62.8 °F 30.21 in ENE 4.0 mph 6.0 mph 98 % 0.00 in
01:08 63.5 °F 63.0 °F 30.21 in ESE 1.0 mph 5.0 mph 98 % 0.00 in
01:13 63.5 °F 63.0 °F 30.21 in SE 1.0 mph 5.0 mph 98 % 0.00 in
01:18 63.7 °F 63.1 °F 30.20 in ESE 1.0 mph 5.0 mph 98 % 0.00 in
01:23 63.7 °F 63.1 °F 30.20 in East 1.0 mph 5.0 mph 98 % 0.00 in
01:28 63.7 °F 63.1 °F 30.20 in ESE 3.0 mph 5.0 mph 98 % 0.00 in
01:33 63.9 °F 63.3 °F 30.20 in SE 1.0 mph 6.0 mph 98 % 0.00 in
01:38 63.9 °F 63.3 °F 30.20 in SE 1.0 mph 6.0 mph 98 % 0.00 in
01:43 63.9 °F 63.3 °F 30.20 in ENE 2.0 mph 6.0 mph 98 % 0.00 in
01:48 63.9 °F 63.3 °F 30.20 in East 2.0 mph 4.0 mph 98 % 0.00 in
01:53 63.9 °F 63.3 °F 30.19 in Calm   4.0 mph 98 % 0.00 in
01:58 63.9 °F 63.3 °F 30.19 in Calm   4.0 mph 98 % 0.00 in
02:03 63.9 °F 63.3 °F 30.19 in East 2.0 mph 4.0 mph 98 % 0.00 in
02:08 63.9 °F 63.3 °F 30.19 in ESE 1.0 mph 4.0 mph 98 % 0.00 in
02:13 63.9 °F 63.3 °F 30.19 in ESE 1.0 mph 4.0 mph 98 % 0.00 in
02:18 63.9 °F 63.3 °F 30.18 in East 1.0 mph 3.0 mph 98 % 0.00 in
02:23 63.9 °F 63.3 °F 30.18 in Calm   3.0 mph 98 % 0.00 in
02:28 63.9 °F 63.3 °F 30.18 in Calm   3.0 mph 98 % 0.00 in
02:33 63.9 °F 63.3 °F 30.18 in East 2.0 mph 3.0 mph 98 % 0.00 in
02:38 63.9 °F 63.3 °F 30.18 in Calm   3.0 mph 98 % 0.00 in
02:43 63.9 °F 63.3 °F 30.17 in SE 2.0 mph 2.0 mph 98 % 0.00 in
02:48 63.9 °F 63.3 °F 30.17 in ENE 2.0 mph 3.0 mph 98 % 0.00 in
02:53 63.9 °F 63.3 °F 30.17 in ESE 1.0 mph 3.0 mph 98 % 0.00 in
02:58 63.9 °F 63.3 °F 30.17 in Calm   3.0 mph 98 % 0.00 in
03:03 64.0 °F 63.5 °F 30.17 in East 2.0 mph 3.0 mph 98 % 0.00 in
03:08 64.0 °F 63.5 °F 30.17 in East 2.0 mph 4.0 mph 98 % 0.00 in
03:13 64.0 °F 63.5 °F 30.17 in ESE 1.0 mph 4.0 mph 98 % 0.00 in
03:18 64.0 °F 63.5 °F 30.17 in ENE 2.0 mph 5.0 mph 98 % 0.00 in
03:24 64.0 °F 63.5 °F 30.17 in East 1.0 mph 5.0 mph 98 % 0.00 in
03:29 64.0 °F 63.5 °F 30.17 in Calm   5.0 mph 98 % 0.00 in
03:34 64.0 °F 63.5 °F 30.17 in Calm   3.0 mph 98 % 0.00 in
03:39 64.0 °F 63.5 °F 30.16 in Calm   3.0 mph 98 % 0.00 in
03:44 64.0 °F 63.5 °F 30.16 in NE 1.0 mph 2.0 mph 98 % 0.00 in
03:49 64.0 °F 63.5 °F 30.16 in Calm   2.0 mph 98 % 0.00 in
03:54 64.0 °F 63.5 °F 30.16 in Calm   4.0 mph 98 % 0.00 in
03:59 64.0 °F 63.5 °F 30.16 in East 1.0 mph 4.0 mph 98 % 0.00 in
04:04 64.0 °F 63.5 °F 30.16 in East 1.0 mph 4.0 mph 98 % 0.00 in
04:09 64.0 °F 63.5 °F 30.16 in Calm   4.0 mph 98 % 0.00 in
04:14 64.0 °F 63.5 °F 30.16 in Calm   4.0 mph 98 % 0.00 in
04:19 64.0 °F 63.5 °F 30.16 in Calm   4.0 mph 98 % 0.00 in
04:24 64.0 °F 63.5 °F 30.16 in ESE 5.0 mph 5.0 mph 98 % 0.00 in
04:29 64.0 °F 63.5 °F 30.15 in Calm   5.0 mph 98 % 0.00 in
04:34 64.0 °F 63.5 °F 30.15 in ESE 1.0 mph 5.0 mph 98 % 0.00 in
04:39 64.0 °F 63.5 °F 30.15 in ESE 1.0 mph 5.0 mph 98 % 0.00 in
04:44 64.0 °F 63.5 °F 30.15 in NNE 1.0 mph 4.0 mph 98 % 0.00 in
04:49 64.0 °F 63.5 °F 30.15 in Calm   4.0 mph 98 % 0.00 in
04:54 64.0 °F 63.5 °F 30.15 in NNW 1.0 mph 5.0 mph 98 % 0.00 in
04:59 64.0 °F 63.5 °F 30.14 in East 1.0 mph 5.0 mph 98 % 0.00 in
05:04 64.0 °F 63.1 °F 30.14 in NNW 1.0 mph 5.0 mph 97 % 0.00 in
05:09 64.0 °F 63.1 °F 30.14 in ENE 2.0 mph 5.0 mph 97 % 0.00 in
05:14 64.0 °F 63.1 °F 30.14 in ESE 1.0 mph 5.0 mph 97 % 0.00 in
05:19 64.2 °F 63.3 °F 30.14 in ENE 1.0 mph 5.0 mph 97 % 0.00 in
05:24 64.2 °F 63.3 °F 30.14 in NE 1.0 mph 5.0 mph 97 % 0.00 in
05:29 64.2 °F 63.3 °F 30.14 in East 1.0 mph 4.0 mph 97 % 0.00 in
05:34 64.2 °F 63.3 °F 30.14 in East 3.0 mph 4.0 mph 97 % 0.00 in
05:39 64.2 °F 63.3 °F 30.14 in Calm   4.0 mph 97 % 0.00 in
05:44 64.2 °F 63.3 °F 30.14 in Calm   4.0 mph 97 % 0.00 in
05:49 64.2 °F 63.3 °F 30.13 in ENE 1.0 mph 4.0 mph 97 % 0.00 in
05:54 64.2 °F 63.3 °F 30.13 in ENE 1.0 mph 5.0 mph 97 % 0.00 in
05:59 64.4 °F 63.5 °F 30.13 in East 2.0 mph 7.0 mph 97 % 0.00 in
06:04 64.4 °F 63.5 °F 30.13 in Calm   7.0 mph 97 % 0.00 in
06:09 64.6 °F 63.7 °F 30.13 in East 2.0 mph 7.0 mph 97 % 0.00 in
06:14 64.6 °F 63.7 °F 30.12 in SE 1.0 mph 4.0 mph 97 % 0.00 in
06:19 64.6 °F 63.7 °F 30.13 in East 1.0 mph 5.0 mph 97 % 0.00 in
06:24 64.6 °F 63.7 °F 30.13 in Calm   6.0 mph 97 % 0.00 in
06:29 64.8 °F 63.9 °F 30.13 in East 3.0 mph 6.0 mph 97 % 0.00 in
06:34 64.8 °F 63.9 °F 30.13 in SE 5.0 mph 6.0 mph 97 % 0.00 in
06:39 64.8 °F 63.9 °F 30.13 in SE 1.0 mph 6.0 mph 97 % 0.00 in
06:44 64.8 °F 63.9 °F 30.13 in ESE 1.0 mph 6.0 mph 97 % 0.00 in
06:49 64.8 °F 63.9 °F 30.13 in ESE 1.0 mph 6.0 mph 97 % 0.00 in
06:54 64.9 °F 64.0 °F 30.13 in ESE 3.0 mph 6.0 mph 97 % 0.00 in
06:59 64.8 °F 63.9 °F 30.13 in ESE 1.0 mph 6.0 mph 97 % 0.00 in
07:04 64.8 °F 63.9 °F 30.12 in East 1.0 mph 6.0 mph 97 % 0.00 in
07:09 64.9 °F 64.0 °F 30.13 in ESE 3.0 mph 6.0 mph 97 % 0.00 in
07:15 64.9 °F 64.0 °F 30.13 in ESE 1.0 mph 6.0 mph 97 % 0.00 in
07:20 64.9 °F 64.0 °F 30.13 in ESE 4.0 mph 4.0 mph 97 % 0.00 in
07:25 64.9 °F 64.0 °F 30.13 in East 3.0 mph 5.0 mph 97 % 0.00 in
07:30 64.9 °F 64.0 °F 30.13 in Calm   5.0 mph 97 % 0.00 in
07:35 64.9 °F 64.0 °F 30.14 in ENE 2.0 mph 5.0 mph 97 % 0.00 in
07:40 65.1 °F 64.2 °F 30.14 in Calm   5.0 mph 97 % 0.00 in
07:45 65.1 °F 64.2 °F 30.14 in East 1.0 mph 5.0 mph 97 % 0.00 in
07:50 65.1 °F 64.2 °F 30.14 in SE 1.0 mph 5.0 mph 97 % 0.00 in
07:55 65.3 °F 64.4 °F 30.14 in East 2.0 mph 5.0 mph 97 % 0.00 in
08:00 65.5 °F 64.6 °F 30.14 in East 2.0 mph 5.0 mph 97 % 0.00 in
08:05 65.5 °F 64.6 °F 30.14 in Calm   5.0 mph 97 % 0.00 in
08:10 65.7 °F 64.8 °F 30.14 in ESE 1.0 mph 4.0 mph 97 % 0.00 in
08:15 65.8 °F 64.9 °F 30.14 in East 2.0 mph 4.0 mph 97 % 0.00 in
08:20 66.0 °F 65.1 °F 30.14 in East 1.0 mph 4.0 mph 97 % 0.00 in
08:25 66.0 °F 65.5 °F 30.14 in ESE 4.0 mph 4.0 mph 98 % 0.00 in
08:30 66.4 °F 65.8 °F 30.14 in SE 2.0 mph 8.0 mph 98 % 0.00 in
08:35 66.7 °F 66.2 °F 30.14 in ESE 3.0 mph 8.0 mph 98 % 0.00 in
08:40 66.9 °F 66.4 °F 30.14 in ESE 3.0 mph 8.0 mph 98 % 0.00 in
08:45 67.1 °F 66.6 °F 30.14 in ESE 2.0 mph 6.0 mph 98 % 0.00 in
08:50 67.3 °F 66.7 °F 30.14 in South 5.0 mph 5.0 mph 98 % 0.00 in
08:55 67.5 °F 66.9 °F 30.14 in SE 1.0 mph 5.0 mph 98 % 0.00 in
09:00 67.6 °F 66.7 °F 30.14 in SE 2.0 mph 7.0 mph 97 % 0.00 in
09:05 67.6 °F 66.7 °F 30.14 in East 9.0 mph 9.0 mph 97 % 0.00 in
09:10 67.8 °F 66.9 °F 30.14 in ESE 3.0 mph 9.0 mph 97 % 0.00 in
09:15 68.0 °F 67.1 °F 30.15 in ESE 3.0 mph 9.0 mph 97 % 0.00 in
09:20 68.2 °F 67.3 °F 30.15 in ESE 4.0 mph 9.0 mph 97 % 0.00 in
09:25 68.2 °F 67.3 °F 30.15 in East 7.0 mph 9.0 mph 97 % 0.00 in
09:30 68.4 °F 67.5 °F 30.15 in East 3.0 mph 9.0 mph 97 % 0.00 in
09:35 68.4 °F 67.5 °F 30.15 in ESE 7.0 mph 9.0 mph 97 % 0.00 in
09:40 68.5 °F 67.6 °F 30.15 in East 2.0 mph 9.0 mph 97 % 0.00 in
09:45 68.7 °F 67.5 °F 30.15 in SE 7.0 mph 9.0 mph 96 % 0.00 in
09:50 69.1 °F 67.8 °F 30.15 in ESE 5.0 mph 9.0 mph 96 % 0.00 in
09:55 69.1 °F 67.8 °F 30.15 in SSE 3.0 mph 9.0 mph 96 % 0.00 in
10:00 69.3 °F 68.0 °F 30.15 in SE 3.0 mph 9.0 mph 96 % 0.00 in
10:05 69.6 °F 68.2 °F 30.15 in SE 3.0 mph 8.0 mph 95 % 0.00 in
10:10 69.6 °F 68.2 °F 30.15 in SSE 3.0 mph 7.0 mph 95 % 0.00 in
10:15 70.0 °F 68.5 °F 30.15 in ESE 7.0 mph 7.0 mph 95 % 0.00 in
10:20 70.2 °F 68.4 °F 30.15 in SE 6.0 mph 8.0 mph 94 % 0.00 in
10:25 70.3 °F 68.5 °F 30.15 in SE 5.0 mph 10.0 mph 94 % 0.00 in
10:30 70.3 °F 68.2 °F 30.15 in SE 4.0 mph 10.0 mph 93 % 0.00 in
10:35 70.3 °F 68.2 °F 30.15 in East 6.0 mph 10.0 mph 93 % 0.00 in
10:40 70.3 °F 68.2 °F 30.14 in ESE 5.0 mph 9.0 mph 93 % 0.00 in
10:45 70.5 °F 68.4 °F 30.14 in SSE 4.0 mph 9.0 mph 93 % 0.00 in
10:50 70.7 °F 68.5 °F 30.14 in East 3.0 mph 9.0 mph 93 % 0.00 in
10:55 70.9 °F 68.4 °F 30.13 in ESE 8.0 mph 11.0 mph 92 % 0.00 in
11:00 71.1 °F 68.4 °F 30.13 in SE 5.0 mph 15.0 mph 91 % 0.00 in
11:05 71.2 °F 68.5 °F 30.13 in SE 6.0 mph 15.0 mph 91 % 0.00 in
11:10 71.2 °F 68.5 °F 30.12 in South 4.0 mph 15.0 mph 91 % 0.00 in
11:15 71.4 °F 68.7 °F 30.12 in SE 3.0 mph 13.0 mph 91 % 0.00 in
11:20 71.4 °F 68.7 °F 30.12 in SSE 5.0 mph 12.0 mph 91 % 0.00 in
11:25 71.6 °F 69.1 °F 30.12 in ESE 7.0 mph 12.0 mph 92 % 0.00 in
11:30 71.8 °F 69.3 °F 30.11 in SE 6.0 mph 12.0 mph 92 % 0.00 in
11:36 71.8 °F 69.1 °F 30.10 in SE 6.0 mph 12.0 mph 91 % 0.00 in
11:41 72.0 °F 69.3 °F 30.10 in SE 13.0 mph 13.0 mph 91 % 0.00 in
11:46 72.0 °F 68.5 °F 30.10 in ESE 7.0 mph 17.0 mph 89 % 0.00 in
11:51 72.0 °F 68.5 °F 30.09 in SE 10.0 mph 17.0 mph 89 % 0.00 in
11:56 72.0 °F 68.5 °F 30.09 in SE 5.0 mph 17.0 mph 89 % 0.00 in
12:01 71.8 °F 68.4 °F 30.09 in ESE 3.0 mph 11.0 mph 89 % 0.00 in
12:06 71.8 °F 68.4 °F 30.08 in ENE 3.0 mph 11.0 mph 89 % 0.00 in
12:11 71.4 °F 68.7 °F 30.08 in ESE 6.0 mph 10.0 mph 91 % 0.01 in
12:16 71.4 °F 68.9 °F 30.07 in East 6.0 mph 11.0 mph 92 % 0.02 in
12:21 71.2 °F 68.7 °F 30.06 in ESE 3.0 mph 11.0 mph 92 % 0.02 in
12:26 71.2 °F 68.7 °F 30.06 in ESE 4.0 mph 12.0 mph 92 % 0.02 in
12:31 71.8 °F 69.1 °F 30.06 in East 6.0 mph 12.0 mph 91 % 0.02 in
12:36 72.0 °F 69.4 °F 30.05 in SE 3.0 mph 12.0 mph 92 % 0.02 in
12:41 72.0 °F 69.3 °F 30.05 in East 5.0 mph 11.0 mph 91 % 0.02 in
12:46 72.0 °F 69.3 °F 30.04 in SSE 3.0 mph 12.0 mph 91 % 0.02 in
12:51 72.1 °F 69.1 °F 30.04 in SSE 7.0 mph 12.0 mph 90 % 0.02 in
12:56 72.3 °F 69.6 °F 30.03 in SE 7.0 mph 13.0 mph 91 % 0.02 in
13:01 72.3 °F 69.6 °F 30.03 in SSE 2.0 mph 13.0 mph 91 % 0.02 in
13:06 72.5 °F 69.4 °F 30.03 in SE 3.0 mph 13.0 mph 90 % 0.02 in
13:11 72.7 °F 70.0 °F 30.02 in NW 3.0 mph 11.0 mph 91 % 0.01 in
13:16 72.9 °F 70.2 °F 30.01 in ESE 6.0 mph 11.0 mph 91 % 0.00 in
13:21 73.0 °F 69.6 °F 30.01 in SE 3.0 mph 12.0 mph 89 % 0.00 in
13:26 73.2 °F 69.4 °F 30.00 in SE 6.0 mph 12.0 mph 88 % 0.00 in
13:31 73.9 °F 70.2 °F 30.00 in SSE 7.0 mph 15.0 mph 88 % 0.00 in
13:36 74.3 °F 69.4 °F 29.99 in SE 8.0 mph 15.0 mph 85 % 0.00 in
13:41 74.1 °F 68.5 °F 29.99 in ESE 10.0 mph 18.0 mph 83 % 0.00 in
13:46 74.7 °F 68.7 °F 29.99 in East 8.0 mph 18.0 mph 82 % 0.00 in
13:51 74.8 °F 68.2 °F 29.99 in SE 10.0 mph 18.0 mph 80 % 0.00 in
13:56 75.0 °F 68.0 °F 29.99 in East 6.0 mph 16.0 mph 79 % 0.00 in
14:01 75.6 °F 67.8 °F 29.99 in ESE 8.0 mph 16.0 mph 77 % 0.00 in
14:06 75.4 °F 66.6 °F 29.99 in SE 11.0 mph 17.0 mph 74 % 0.00 in
14:11 75.4 °F 66.6 °F 29.99 in SE 11.0 mph 17.0 mph 74 % 0.00 in
14:16 75.4 °F 66.2 °F 29.98 in SE 8.0 mph 19.0 mph 73 % 0.00 in
14:21 75.4 °F 67.3 °F 29.99 in SE 7.0 mph 19.0 mph 76 % 0.00 in
14:26 75.4 °F 67.3 °F 29.98 in ESE 11.0 mph 19.0 mph 76 % 0.00 in
14:31 75.2 °F 67.1 °F 29.98 in SE 9.0 mph 13.0 mph 76 % 0.00 in
14:36 75.0 °F 66.9 °F 29.98 in SSE 10.0 mph 17.0 mph 76 % 0.00 in
14:41 75.0 °F 66.9 °F 29.97 in SSE 8.0 mph 17.0 mph 76 % 0.00 in
14:47 75.0 °F 67.3 °F 29.97 in SE 9.0 mph 17.0 mph 77 % 0.00 in
14:52 75.2 °F 67.1 °F 29.97 in ESE 11.0 mph 17.0 mph 76 % 0.00 in
14:57 74.8 °F 66.7 °F 29.97 in SSE 9.0 mph 15.0 mph 76 % 0.00 in
15:02 74.7 °F 66.6 °F 29.97 in SE 13.0 mph 15.0 mph 76 % 0.00 in
15:07 74.7 °F 66.2 °F 29.97 in East 8.0 mph 18.0 mph 75 % 0.00 in
15:12 74.8 °F 66.4 °F 29.97 in ESE 8.0 mph 18.0 mph 75 % 0.00 in
15:17 74.7 °F 66.6 °F 29.97 in SE 5.0 mph 18.0 mph 76 % 0.00 in
15:22 74.8 °F 67.1 °F 29.97 in ESE 11.0 mph 16.0 mph 77 % 0.00 in
15:27 74.7 °F 67.3 °F 29.96 in SE 11.0 mph 16.0 mph 78 % 0.00 in
15:32 74.3 °F 66.9 °F 29.97 in ESE 10.0 mph 16.0 mph 78 % 0.00 in
15:37 73.9 °F 66.6 °F 29.97 in East 10.0 mph 18.0 mph 78 % 0.00 in
15:42 73.8 °F 66.9 °F 29.97 in SE 13.0 mph 18.0 mph 79 % 0.00 in
15:47 73.8 °F 66.9 °F 29.97 in East 7.0 mph 18.0 mph 79 % 0.00 in
15:52 73.6 °F 67.1 °F 29.97 in ESE 5.0 mph 16.0 mph 80 % 0.00 in
15:57 73.6 °F 67.5 °F 29.97 in SE 9.0 mph 16.0 mph 81 % 0.00 in
16:02 73.4 °F 67.3 °F 29.96 in ESE 6.0 mph 16.0 mph 81 % 0.00 in
16:07 73.2 °F 67.1 °F 29.97 in SSE 6.0 mph 16.0 mph 81 % 0.00 in
16:12 73.2 °F 67.1 °F 29.97 in SE 6.0 mph 16.0 mph 81 % 0.00 in
16:17 73.0 °F 67.3 °F 29.96 in SE 7.0 mph 15.0 mph 82 % 0.00 in
16:22 72.9 °F 67.1 °F 29.96 in SSE 6.0 mph 15.0 mph 82 % 0.00 in
16:27 72.7 °F 67.3 °F 29.96 in SSE 14.0 mph 15.0 mph 83 % 0.00 in
16:32 72.7 °F 67.3 °F 29.96 in SE 5.0 mph 16.0 mph 83 % 0.00 in
16:37 72.5 °F 67.5 °F 29.96 in East 6.0 mph 16.0 mph 84 % 0.00 in
16:42 72.3 °F 67.3 °F 29.96 in South 7.0 mph 16.0 mph 84 % 0.00 in
16:47 72.1 °F 67.5 °F 29.96 in East 18.0 mph 18.0 mph 85 % 0.00 in
16:52 72.0 °F 67.3 °F 29.96 in SSE 2.0 mph 18.0 mph 85 % 0.00 in
16:57 71.8 °F 67.1 °F 29.96 in ESE 9.0 mph 18.0 mph 85 % 0.00 in
17:02 71.6 °F 67.1 °F 29.96 in ESE 9.0 mph 18.0 mph 86 % 0.00 in
17:07 71.4 °F 67.3 °F 29.96 in SSE 5.0 mph 14.0 mph 87 % 0.00 in
17:12 71.2 °F 67.1 °F 29.95 in ESE 6.0 mph 13.0 mph 87 % 0.00 in
17:17 71.2 °F 67.1 °F 29.95 in East 3.0 mph 13.0 mph 87 % 0.00 in
17:22 71.1 °F 67.3 °F 29.95 in ESE 4.0 mph 13.0 mph 88 % 0.00 in
17:27 70.9 °F 67.1 °F 29.95 in SE 7.0 mph 13.0 mph 88 % 0.00 in
17:32 70.5 °F 67.1 °F 29.95 in SSW 6.0 mph 15.0 mph 89 % 0.00 in
17:37 70.3 °F 66.9 °F 29.94 in SSE 4.0 mph 15.0 mph 89 % 0.00 in
17:42 70.2 °F 67.1 °F 29.94 in East 8.0 mph 15.0 mph 90 % 0.00 in
17:47 70.0 °F 66.9 °F 29.94 in ESE 9.0 mph 14.0 mph 90 % 0.00 in
17:52 70.0 °F 67.3 °F 29.94 in SE 5.0 mph 17.0 mph 91 % 0.00 in
17:57 69.8 °F 67.1 °F 29.94 in South 4.0 mph 17.0 mph 91 % 0.00 in
18:02 69.6 °F 66.9 °F 29.94 in East 11.0 mph 17.0 mph 91 % 0.00 in
18:07 69.6 °F 66.9 °F 29.94 in SE 4.0 mph 13.0 mph 91 % 0.00 in
18:12 69.6 °F 66.9 °F 29.94 in SE 6.0 mph 13.0 mph 91 % 0.00 in
18:17 69.6 °F 66.9 °F 29.94 in ESE 5.0 mph 13.0 mph 91 % 0.00 in
18:22 69.4 °F 67.1 °F 29.94 in ESE 3.0 mph 13.0 mph 92 % 0.00 in
18:27 69.3 °F 66.9 °F 29.94 in East 9.0 mph 13.0 mph 92 % 0.00 in
18:32 69.1 °F 66.9 °F 29.94 in ENE 5.0 mph 13.0 mph 93 % 0.00 in
18:37 69.1 °F 66.9 °F 29.94 in East 11.0 mph 13.0 mph 93 % 0.00 in
18:42 68.9 °F 66.7 °F 29.94 in ESE 6.0 mph 15.0 mph 93 % 0.00 in
18:47 68.9 °F 66.7 °F 29.94 in SSE 5.0 mph 15.0 mph 93 % 0.00 in
18:52 68.9 °F 66.7 °F 29.94 in East 9.0 mph 15.0 mph 93 % 0.00 in
18:57 69.1 °F 66.9 °F 29.94 in ESE 7.0 mph 14.0 mph 93 % 0.00 in
19:02 69.1 °F 66.9 °F 29.94 in ESE 3.0 mph 14.0 mph 93 % 0.00 in
19:07 69.1 °F 66.9 °F 29.94 in SE 8.0 mph 14.0 mph 93 % 0.00 in
19:12 69.1 °F 66.9 °F 29.94 in East 5.0 mph 14.0 mph 93 % 0.00 in
19:17 69.1 °F 66.7 °F 29.94 in ESE 3.0 mph 11.0 mph 92 % 0.00 in
19:22 69.1 °F 66.7 °F 29.94 in SSE 6.0 mph 11.0 mph 92 % 0.00 in
19:27 69.1 °F 66.7 °F 29.94 in SE 4.0 mph 11.0 mph 92 % 0.00 in
19:32 69.1 °F 66.7 °F 29.94 in ESE 4.0 mph 11.0 mph 92 % 0.00 in
19:37 69.1 °F 66.7 °F 29.94 in ESE 6.0 mph 11.0 mph 92 % 0.00 in
19:42 69.1 °F 66.7 °F 29.94 in East 7.0 mph 11.0 mph 92 % 0.00 in
19:47 69.1 °F 66.7 °F 29.94 in SE 4.0 mph 11.0 mph 92 % 0.00 in
19:52 69.1 °F 66.7 °F 29.95 in SSE 5.0 mph 10.0 mph 92 % 0.00 in
19:57 69.1 °F 66.7 °F 29.95 in ENE 13.0 mph 13.0 mph 92 % 0.00 in
20:02 69.3 °F 66.6 °F 29.95 in SE 8.0 mph 13.0 mph 91 % 0.00 in
20:07 69.3 °F 66.6 °F 29.96 in SE 5.0 mph 13.0 mph 91 % 0.00 in
20:12 69.3 °F 66.6 °F 29.96 in ESE 11.0 mph 13.0 mph 91 % 0.00 in
20:17 69.3 °F 66.6 °F 29.96 in SSE 7.0 mph 13.0 mph 91 % 0.00 in
20:22 69.3 °F 66.6 °F 29.96 in SE 10.0 mph 13.0 mph 91 % 0.00 in
20:27 69.3 °F 66.6 °F 29.96 in SSE 3.0 mph 13.0 mph 91 % 0.00 in
20:32 69.3 °F 66.6 °F 29.96 in ESE 11.0 mph 13.0 mph 91 % 0.00 in
20:37 69.3 °F 66.6 °F 29.96 in SSE 9.0 mph 14.0 mph 91 % 0.00 in
20:42 69.1 °F 66.4 °F 29.96 in ESE 4.0 mph 17.0 mph 91 % 0.00 in
20:47 69.1 °F 66.4 °F 29.96 in SE 4.0 mph 17.0 mph 91 % 0.00 in
20:52 69.1 °F 66.4 °F 29.96 in East 8.0 mph 17.0 mph 91 % 0.00 in
20:57 69.1 °F 66.4 °F 29.96 in ESE 3.0 mph 15.0 mph 91 % 0.00 in
21:02 68.9 °F 66.2 °F 29.96 in SSE 6.0 mph 15.0 mph 91 % 0.00 in
21:07 68.9 °F 66.2 °F 29.96 in SE 4.0 mph 15.0 mph 91 % 0.00 in
21:13 68.7 °F 66.0 °F 29.96 in SE 5.0 mph 11.0 mph 91 % 0.00 in
21:18 68.7 °F 66.0 °F 29.96 in SE 4.0 mph 14.0 mph 91 % 0.00 in
21:23 68.7 °F 66.0 °F 29.96 in SSE 5.0 mph 14.0 mph 91 % 0.00 in
21:28 68.7 °F 66.0 °F 29.96 in ESE 7.0 mph 14.0 mph 91 % 0.00 in
21:33 68.7 °F 66.0 °F 29.96 in ESE 6.0 mph 13.0 mph 91 % 0.00 in
21:38 68.7 °F 66.0 °F 29.97 in East 2.0 mph 13.0 mph 91 % 0.00 in
21:43 68.7 °F 66.0 °F 29.97 in SE 4.0 mph 13.0 mph 91 % 0.00 in
21:48 68.7 °F 66.0 °F 29.97 in SE 4.0 mph 12.0 mph 91 % 0.00 in
21:53 68.7 °F 66.4 °F 29.97 in ESE 4.0 mph 12.0 mph 92 % 0.00 in
21:58 68.7 °F 66.4 °F 29.97 in ESE 2.0 mph 11.0 mph 92 % 0.00 in
22:03 68.7 °F 66.4 °F 29.97 in ESE 4.0 mph 11.0 mph 92 % 0.00 in
22:08 68.7 °F 66.4 °F 29.98 in SE 6.0 mph 10.0 mph 92 % 0.00 in
22:13 68.7 °F 66.4 °F 29.98 in SE 4.0 mph 11.0 mph 92 % 0.00 in
22:18 68.5 °F 66.2 °F 29.98 in SSE 4.0 mph 11.0 mph 92 % 0.00 in
22:23 68.5 °F 66.2 °F 29.97 in ESE 7.0 mph 11.0 mph 92 % 0.00 in
22:28 68.5 °F 66.2 °F 29.97 in SSE 1.0 mph 10.0 mph 92 % 0.00 in
22:33 68.5 °F 66.2 °F 29.97 in East 3.0 mph 10.0 mph 92 % 0.00 in
22:38 68.4 °F 66.0 °F 29.98 in SE 5.0 mph 10.0 mph 92 % 0.00 in
22:43 68.4 °F 66.0 °F 29.98 in ESE 5.0 mph 9.0 mph 92 % 0.00 in
22:48 68.2 °F 65.8 °F 29.98 in SSE 2.0 mph 7.0 mph 92 % 0.00 in
22:53 68.2 °F 65.8 °F 29.98 in ESE 4.0 mph 7.0 mph 92 % 0.00 in
22:58 68.2 °F 65.8 °F 29.97 in East 5.0 mph 7.0 mph 92 % 0.00 in
23:03 68.0 °F 65.7 °F 29.97 in ESE 4.0 mph 9.0 mph 92 % 0.00 in
23:08 67.8 °F 65.7 °F 29.97 in SE 3.0 mph 9.0 mph 93 % 0.00 in
23:13 67.8 °F 65.7 °F 29.97 in SSE 5.0 mph 9.0 mph 93 % 0.00 in
23:18 67.8 °F 65.7 °F 29.96 in SE 3.0 mph 8.0 mph 93 % 0.00 in
23:23 67.8 °F 65.7 °F 29.96 in ESE 5.0 mph 8.0 mph 93 % 0.00 in
23:28 67.8 °F 65.7 °F 29.96 in SE 6.0 mph 10.0 mph 93 % 0.00 in
23:33 67.8 °F 65.7 °F 29.96 in SE 4.0 mph 10.0 mph 93 % 0.00 in
23:38 67.8 °F 65.7 °F 29.95 in ESE 5.0 mph 11.0 mph 93 % 0.00 in
23:43 67.8 °F 65.7 °F 29.95 in SSE 5.0 mph 11.0 mph 93 % 0.00 in
23:48 67.8 °F 65.7 °F 29.95 in SE 5.0 mph 11.0 mph 93 % 0.00 in
23:53 68.0 °F 65.8 °F 29.94 in SE 6.0 mph 11.0 mph 93 % 0.00 in
23:58 68.2 °F 66.0 °F 29.94 in SE 6.0 mph 12.0 mph 93 % 0.00 in
Spring, Texas: Villages of Bridgestone
Compliments of Weather Underground - 2.75 mb

Script developed by  Jim McMurry - jmcmurry@mwt.net Adapted for the template by  Wim van der Kuil - Leuven-Template.eu

You find our weather info also at:

UK Metoffice

WeatherCloud

Weather Underground

Mid-South Weather Network

AWEKAS

Citizen Weather Observer Program (CWOP)

HAMweather, WeatherForYou, PWS Weather

Equipment we use:

Weather-station
Davis Vantage Vue

Weather-program
Meteohub

Weather-server
Debian 7.9 x86 (Guest)

Provider
DreamHost

Davis Vantage Vue

Meteohub

Debian 7.9 x86 (Guest)

DreamHost